createdAt,value
2024-02-28T00:00:00.620Z,120.30
2024-02-28T00:02:33.654Z,111.40
2024-02-28T00:05:05.800Z,116.70
2024-02-28T00:07:37.729Z,112.00
2024-02-28T00:10:10.866Z,104.20
2024-02-28T00:12:43.491Z,122.80
2024-02-28T00:15:15.628Z,118.60
2024-02-28T00:17:47.834Z,112.90
2024-02-28T00:20:19.868Z,102.20
2024-02-28T00:22:51.774Z,107.20
2024-02-28T00:25:23.645Z,107.80
2024-02-28T00:27:55.779Z,104.90
2024-02-28T00:30:29.664Z,105.20
2024-02-28T00:33:01.965Z,100.30
2024-02-28T00:35:35.574Z,99.80
2024-02-28T00:38:07.549Z,100.00
2024-02-28T00:40:39.461Z,97.00
2024-02-28T00:43:11.553Z,102.30
2024-02-28T00:45:44.106Z,97.00
2024-02-28T00:48:16.604Z,101.20
2024-02-28T00:50:48.534Z,103.50
2024-02-28T00:53:21.021Z,106.50
2024-02-28T00:55:53.248Z,111.90
2024-02-28T00:58:25.125Z,117.30
2024-02-28T01:00:57.299Z,113.70
2024-02-28T01:03:29.201Z,114.10
2024-02-28T01:06:05.049Z,112.20
2024-02-28T01:11:07.478Z,112.20
2024-02-28T01:13:39.353Z,104.90
2024-02-28T01:16:11.757Z,106.60
2024-02-28T01:18:43.655Z,100.20
2024-02-28T01:21:15.557Z,100.70
2024-02-28T01:23:47.441Z,98.70
2024-02-28T01:26:21.465Z,94.20
2024-02-28T01:28:53.410Z,106.40
2024-02-28T01:31:25.442Z,95.70
2024-02-28T01:33:58.895Z,95.50
2024-02-28T01:36:30.859Z,92.20
2024-02-28T01:39:02.698Z,94.20
2024-02-28T01:41:34.578Z,84.10
2024-02-28T01:44:06.846Z,88.50
2024-02-28T01:46:38.661Z,90.10
2024-02-28T01:49:10.559Z,87.90
2024-02-28T01:51:44.035Z,87.80
2024-02-28T01:54:16.545Z,89.30
2024-02-28T01:56:48.596Z,88.90
2024-02-28T01:59:21.558Z,91.00
2024-02-28T02:01:54.202Z,91.80
2024-02-28T02:04:26.169Z,79.40
2024-02-28T02:06:59.509Z,85.80
2024-02-28T02:09:31.737Z,84.50
2024-02-28T02:12:04.246Z,84.80
2024-02-28T02:14:36.247Z,89.10
2024-02-28T02:17:08.380Z,92.00
2024-02-28T02:19:40.402Z,91.00
2024-02-28T02:22:15.406Z,86.30
2024-02-28T02:24:47.354Z,93.50
2024-02-28T02:27:19.252Z,90.30
2024-02-28T02:29:51.066Z,89.60
2024-02-28T02:32:22.997Z,88.70
2024-02-28T02:34:54.817Z,87.10
2024-02-28T02:37:26.816Z,92.50
2024-02-28T02:39:59.278Z,85.80
2024-02-28T02:42:31.151Z,78.80
2024-02-28T02:45:03.102Z,82.20
2024-02-28T02:47:35.101Z,75.20
2024-02-28T02:50:07.909Z,79.80
2024-02-28T02:52:39.762Z,75.80
2024-02-28T02:55:12.216Z,76.20
2024-02-28T02:57:44.789Z,75.10
2024-02-28T03:00:17.361Z,75.70
2024-02-28T03:02:49.250Z,77.10
2024-02-28T03:05:21.086Z,78.40
2024-02-28T03:07:52.959Z,70.10
2024-02-28T03:10:24.817Z,72.00
2024-02-28T03:12:56.984Z,79.10
2024-02-28T03:15:29.290Z,77.10
2024-02-28T03:18:01.262Z,79.10
2024-02-28T03:20:33.079Z,84.90
2024-02-28T03:23:06.858Z,70.20
2024-02-28T03:25:38.636Z,72.70
2024-02-28T03:28:10.842Z,68.90
2024-02-28T03:30:43.080Z,68.10
2024-02-28T03:33:15.096Z,69.80
2024-02-28T03:35:46.933Z,74.80
2024-02-28T03:38:18.889Z,69.10
2024-02-28T03:40:50.683Z,65.20
2024-02-28T03:43:22.546Z,67.60
2024-02-28T03:45:54.382Z,65.90
2024-02-28T03:48:26.588Z,63.80
2024-02-28T03:50:58.554Z,64.60
2024-02-28T03:53:30.859Z,69.00
2024-02-28T03:56:02.783Z,67.00
2024-02-28T03:58:34.693Z,69.90
2024-02-28T04:01:07.056Z,67.90
2024-02-28T04:03:39.022Z,64.70
2024-02-28T04:06:10.940Z,67.70
2024-02-28T04:08:44.681Z,70.60
2024-02-28T04:11:16.651Z,73.30
2024-02-28T04:13:48.732Z,68.80
2024-02-28T04:16:21.030Z,66.50
2024-02-28T04:18:53.021Z,69.50
2024-02-28T04:21:25.116Z,68.10
2024-02-28T04:23:57.007Z,72.50
2024-02-28T04:26:28.942Z,77.90
2024-02-28T04:29:02.787Z,73.50
2024-02-28T04:31:34.939Z,75.40
2024-02-28T04:34:06.791Z,70.00
2024-02-28T04:36:38.802Z,74.60
2024-02-28T04:39:11.022Z,75.60
2024-02-28T04:41:43.062Z,76.40
2024-02-28T04:44:15.081Z,76.90
2024-02-28T04:46:46.855Z,76.20
2024-02-28T04:49:18.714Z,74.20
2024-02-28T04:51:51.453Z,76.90
2024-02-28T04:54:23.419Z,77.10
2024-02-28T04:56:55.241Z,77.80
2024-02-28T04:59:27.061Z,77.90
2024-02-28T05:01:58.970Z,78.30
2024-02-28T05:04:31.012Z,79.70
2024-02-28T05:07:04.021Z,81.00
2024-02-28T05:09:36.572Z,78.90
2024-02-28T05:12:10.137Z,79.00
2024-02-28T05:14:42.042Z,85.20
2024-02-28T05:17:13.813Z,82.70
2024-02-28T05:19:45.695Z,84.80
2024-02-28T05:22:17.509Z,91.50
2024-02-28T05:24:51.685Z,87.90
2024-02-28T05:27:23.777Z,94.50
2024-02-28T05:29:55.905Z,91.90
2024-02-28T05:32:27.880Z,95.20
2024-02-28T05:35:01.004Z,103.40
2024-02-28T05:37:32.964Z,96.70
2024-02-28T05:40:05.108Z,105.40
2024-02-28T05:42:37.088Z,96.80
2024-02-28T05:45:10.695Z,115.20
2024-02-28T05:47:42.635Z,114.60
2024-02-28T05:50:15.680Z,111.90
2024-02-28T05:52:47.529Z,123.40
2024-02-28T05:55:19.617Z,113.10
2024-02-28T05:57:51.619Z,118.70
2024-02-28T06:00:24.139Z,114.80
2024-02-28T06:02:56.186Z,108.50
2024-02-28T06:05:28.640Z,103.90
2024-02-28T06:08:00.475Z,109.80
2024-02-28T06:10:32.539Z,113.10
2024-02-28T06:13:05.864Z,101.50
2024-02-28T06:15:37.900Z,107.20
2024-02-28T06:18:10.639Z,96.80
2024-02-28T06:20:43.116Z,98.50
2024-02-28T06:23:23.338Z,104.10
2024-02-28T06:26:00.004Z,92.80
2024-02-28T06:28:33.417Z,96.90
2024-02-28T06:31:05.456Z,97.60
2024-02-28T06:33:37.405Z,116.30
2024-02-28T06:36:09.924Z,98.70
2024-02-28T06:38:41.830Z,96.70
2024-02-28T06:41:14.128Z,98.70
2024-02-28T06:43:47.304Z,99.20
2024-02-28T06:46:19.852Z,88.90
2024-02-28T06:48:51.676Z,95.40
2024-02-28T06:51:23.561Z,85.00
2024-02-28T06:53:55.549Z,85.70
2024-02-28T06:56:27.632Z,90.10
2024-02-28T06:58:59.566Z,81.20
2024-02-28T07:01:31.830Z,81.40
2024-02-28T07:04:04.285Z,89.70
2024-02-28T07:06:36.309Z,86.90
2024-02-28T07:09:09.643Z,80.30
2024-02-28T07:11:42.458Z,85.20
2024-02-28T07:14:16.860Z,78.90
2024-02-28T07:16:48.866Z,86.80
2024-02-28T07:19:20.913Z,66.90
2024-02-28T07:21:52.912Z,71.00
2024-02-28T07:24:25.160Z,69.90
2024-02-28T07:26:57.104Z,53.60
2024-02-28T07:29:28.894Z,47.60
2024-02-28T07:32:02.599Z,39.90
2024-02-28T07:34:35.048Z,36.40
2024-02-28T07:37:07.280Z,34.90
2024-02-28T07:39:39.120Z,37.10
2024-02-28T07:42:11.137Z,35.40
2024-02-28T07:44:43.351Z,34.80
2024-02-28T07:47:15.830Z,30.80
2024-02-28T07:49:48.334Z,29.30
2024-02-28T07:52:20.378Z,33.30
2024-02-28T07:54:52.804Z,33.70
2024-02-28T07:57:24.858Z,32.40
2024-02-28T07:59:57.040Z,33.80
2024-02-28T08:02:29.200Z,32.00
2024-02-28T08:05:01.231Z,31.20
2024-02-28T08:07:33.815Z,31.50
2024-02-28T08:10:07.290Z,31.20
2024-02-28T08:12:39.254Z,32.40
2024-02-28T08:15:12.460Z,28.20
2024-02-28T08:17:44.410Z,29.00
2024-02-28T08:20:16.909Z,25.60
2024-02-28T08:22:48.962Z,25.90
2024-02-28T08:25:20.873Z,26.20
2024-02-28T08:27:52.914Z,26.70
2024-02-28T08:30:24.829Z,25.20
2024-02-28T08:32:56.832Z,23.90
2024-02-28T08:35:29.553Z,24.20
2024-02-28T08:38:01.532Z,23.60
2024-02-28T08:40:33.361Z,23.80
2024-02-28T08:43:05.486Z,23.20
2024-02-28T08:45:38.740Z,26.30
2024-02-28T08:48:11.560Z,24.00
2024-02-28T08:50:43.494Z,23.20
2024-02-28T08:53:15.335Z,23.00
2024-02-28T08:55:47.966Z,20.50
2024-02-28T08:58:20.476Z,21.30
2024-02-28T09:00:52.399Z,18.50
2024-02-28T09:03:24.335Z,18.50
2024-02-28T09:05:56.118Z,20.20
2024-02-28T09:08:28.042Z,16.90
2024-02-28T09:10:59.915Z,19.00
2024-02-28T09:13:31.883Z,17.30
2024-02-28T09:16:04.041Z,18.60
2024-02-28T09:18:36.166Z,18.10
2024-02-28T09:21:10.001Z,17.60
2024-02-28T09:23:41.971Z,19.30
2024-02-28T09:26:13.856Z,17.60
2024-02-28T09:28:46.203Z,19.20
2024-02-28T09:31:18.305Z,16.90
2024-02-28T09:33:50.431Z,14.50
2024-02-28T09:36:22.379Z,16.40
2024-02-28T09:38:54.181Z,15.90
2024-02-28T09:41:28.702Z,18.90
2024-02-28T09:44:02.336Z,17.50
2024-02-28T09:46:36.570Z,17.80
2024-02-28T09:49:09.764Z,18.40
2024-02-28T09:51:41.937Z,17.90
2024-02-28T09:54:14.770Z,18.10
2024-02-28T09:56:46.845Z,21.00
2024-02-28T09:59:21.906Z,17.70
2024-02-28T10:01:58.544Z,18.90
2024-02-28T10:04:31.670Z,19.00
2024-02-28T10:07:15.421Z,20.50
2024-02-28T10:09:47.753Z,21.80
2024-02-28T10:12:20.308Z,22.50
2024-02-28T10:14:54.251Z,27.40
2024-02-28T10:17:27.611Z,25.30
2024-02-28T10:20:05.539Z,24.70
2024-02-28T10:22:41.311Z,23.60
2024-02-28T10:25:13.522Z,23.70
2024-02-28T10:27:45.438Z,23.60
2024-02-28T10:30:18.520Z,23.60
2024-02-28T10:32:53.828Z,20.20
2024-02-28T10:35:26.809Z,20.60
2024-02-28T10:37:58.790Z,19.90
2024-02-28T10:40:31.861Z,25.70
2024-02-28T10:43:05.099Z,19.80
2024-02-28T10:45:49.343Z,60.10
2024-02-28T10:48:30.445Z,22.60
2024-02-28T10:51:05.044Z,18.90
2024-02-28T10:53:43.829Z,28.30
2024-02-28T10:56:21.113Z,39.10
2024-02-28T10:58:59.232Z,20.50
2024-02-28T11:01:31.605Z,29.30
2024-02-28T11:04:04.892Z,24.70
2024-02-28T11:06:36.874Z,21.00
2024-02-28T11:09:13.177Z,43.20
2024-02-28T11:11:45.265Z,25.40
2024-02-28T11:14:22.785Z,25.10
2024-02-28T11:17:05.122Z,25.40
2024-02-28T11:19:37.398Z,26.90
2024-02-28T11:22:10.218Z,20.80
2024-02-28T11:24:46.347Z,36.80
2024-02-28T11:27:18.951Z,21.20
2024-02-28T11:29:51.629Z,20.40
2024-02-28T11:32:23.710Z,24.70
2024-02-28T11:34:55.601Z,23.20
2024-02-28T11:37:28.488Z,34.30
2024-02-28T11:40:00.781Z,41.70
2024-02-28T11:42:33.019Z,49.30
2024-02-28T11:45:06.725Z,31.70
2024-02-28T11:47:38.726Z,27.20
2024-02-28T11:50:11.629Z,21.70
2024-02-28T11:52:43.972Z,23.80
2024-02-28T11:55:15.871Z,21.60
2024-02-28T11:57:47.806Z,19.50
2024-02-28T12:00:20.326Z,19.00
2024-02-28T12:02:53.390Z,19.20
2024-02-28T12:05:26.009Z,19.30
2024-02-28T12:07:59.528Z,27.50
2024-02-28T12:10:31.601Z,38.60
2024-02-28T12:13:05.205Z,135.70
2024-02-28T12:15:37.333Z,21.00
2024-02-28T12:18:13.382Z,22.10
2024-02-28T12:20:46.684Z,16.90
2024-02-28T12:23:19.339Z,17.40
2024-02-28T12:25:51.421Z,16.80
2024-02-28T12:28:23.248Z,18.70
2024-02-28T12:30:55.528Z,17.50
2024-02-28T12:33:27.486Z,20.40
2024-02-28T12:35:59.425Z,24.80
2024-02-28T12:38:31.678Z,17.70
2024-02-28T12:41:05.128Z,22.10
2024-02-28T12:43:37.024Z,21.10
2024-02-28T12:46:09.234Z,19.70
2024-02-28T12:48:42.913Z,19.00
2024-02-28T12:51:37.288Z,22.30
2024-02-28T12:54:10.359Z,19.20
2024-02-28T12:56:44.079Z,22.80
2024-02-28T12:59:16.913Z,23.60
2024-02-28T13:01:49.872Z,22.20
2024-02-28T13:04:21.823Z,24.00
2024-02-28T13:06:54.767Z,21.40
2024-02-28T13:09:26.719Z,24.70
2024-02-28T13:11:58.869Z,28.30
2024-02-28T13:14:30.797Z,26.60
2024-02-28T13:17:04.735Z,46.30
2024-02-28T13:19:37.068Z,34.60
2024-02-28T13:22:09.081Z,35.20
2024-02-28T13:24:41.088Z,32.30
2024-02-28T13:27:13.167Z,68.90
2024-02-28T13:29:45.074Z,38.70
2024-02-28T13:32:16.898Z,34.30
2024-02-28T13:34:50.033Z,40.10
2024-02-28T13:37:22.174Z,42.00
2024-02-28T13:39:54.198Z,31.80
2024-02-28T13:42:26.703Z,30.70
2024-02-28T13:44:58.548Z,36.70
2024-02-28T13:47:30.741Z,34.30
2024-02-28T13:50:02.672Z,39.20
2024-02-28T13:52:34.657Z,41.60
2024-02-28T13:55:07.642Z,43.40
2024-02-28T13:57:39.779Z,48.80
2024-02-28T14:00:14.952Z,51.50
2024-02-28T14:02:47.020Z,47.80
2024-02-28T14:05:18.964Z,60.50
2024-02-28T14:07:50.858Z,65.40
2024-02-28T14:10:23.949Z,64.70
2024-02-28T14:12:56.346Z,63.30
2024-02-28T14:15:29.487Z,61.00
2024-02-28T14:18:01.828Z,57.00
2024-02-28T14:20:33.738Z,52.00
2024-02-28T14:23:06.116Z,56.90
2024-02-28T14:25:38.144Z,53.80
2024-02-28T14:28:10.695Z,54.20
2024-02-28T14:30:44.040Z,54.70
2024-02-28T14:33:16.106Z,51.20
2024-02-28T14:35:48.087Z,48.80
2024-02-28T14:38:21.059Z,46.80
2024-02-28T14:40:56.896Z,53.70
2024-02-28T14:43:31.522Z,48.20
2024-02-28T14:46:05.738Z,69.60
2024-02-28T14:48:39.372Z,56.70
2024-02-28T14:51:12.645Z,48.00
2024-02-28T14:53:45.839Z,50.00
2024-02-28T14:56:20.708Z,44.10
2024-02-28T14:58:53.038Z,54.40
2024-02-28T15:01:25.814Z,64.50
2024-02-28T15:03:57.827Z,46.80
2024-02-28T15:06:29.620Z,61.00
2024-02-28T15:09:01.496Z,53.00
2024-02-28T15:11:34.398Z,55.80
2024-02-28T15:14:06.532Z,55.90
2024-02-28T15:16:38.515Z,111.90
2024-02-28T15:19:10.498Z,61.80
2024-02-28T15:21:42.753Z,90.30
2024-02-28T15:24:15.530Z,74.90
2024-02-28T15:26:47.644Z,64.00
2024-02-28T15:29:19.577Z,59.60
2024-02-28T15:31:51.455Z,70.60
2024-02-28T15:34:23.996Z,58.80
2024-02-28T15:36:57.355Z,61.10
2024-02-28T15:39:30.427Z,63.90
2024-02-28T15:42:03.691Z,66.60
2024-02-28T15:44:39.140Z,57.80
2024-02-28T15:47:13.747Z,117.50
2024-02-28T15:49:47.115Z,117.60
2024-02-28T15:52:21.049Z,81.60
2024-02-28T15:54:53.441Z,67.70
2024-02-28T15:57:25.268Z,45.50
2024-02-28T15:59:57.653Z,49.00
2024-02-28T16:02:29.662Z,51.20
2024-02-28T16:05:02.567Z,50.90
2024-02-28T16:07:34.571Z,50.30
2024-02-28T16:10:07.421Z,45.30
2024-02-28T16:12:40.029Z,52.20
2024-02-28T16:15:13.072Z,53.90
2024-02-28T16:17:45.332Z,50.30
2024-02-28T16:20:17.430Z,63.90
2024-02-28T16:22:49.428Z,65.30
2024-02-28T16:25:22.565Z,65.60
2024-02-28T16:27:54.582Z,65.00
2024-02-28T16:30:26.547Z,71.30
2024-02-28T16:32:58.491Z,73.90
2024-02-28T16:35:31.180Z,107.90
2024-02-28T16:38:03.091Z,109.10
2024-02-28T16:40:35.089Z,86.20
2024-02-28T16:43:07.806Z,86.40
2024-02-28T16:45:40.931Z,77.40
2024-02-28T16:48:13.086Z,89.30
2024-02-28T16:50:45.155Z,86.70
2024-02-28T16:53:17.185Z,83.50
2024-02-28T16:55:49.272Z,95.60
2024-02-28T16:58:21.420Z,89.70
2024-02-28T17:00:53.488Z,100.30
2024-02-28T17:03:25.944Z,91.60
2024-02-28T17:05:58.107Z,80.60
2024-02-28T17:08:30.092Z,93.90
2024-02-28T17:11:02.148Z,82.80
2024-02-28T17:13:34.176Z,87.70
2024-02-28T17:16:06.307Z,80.30
2024-02-28T17:18:38.380Z,65.70
2024-02-28T17:21:10.358Z,64.50
2024-02-28T17:23:42.328Z,59.10
2024-02-28T17:26:14.216Z,56.10
2024-02-28T17:28:46.379Z,54.30
2024-02-28T17:31:18.263Z,63.60
2024-02-28T17:33:50.318Z,64.80
2024-02-28T17:36:22.259Z,55.70
2024-02-28T17:38:54.141Z,53.30
2024-02-28T17:41:26.086Z,67.70
2024-02-28T17:43:57.925Z,60.00
2024-02-28T17:46:29.815Z,53.40
2024-02-28T17:49:01.698Z,46.90
2024-02-28T17:51:36.768Z,41.40
2024-02-28T17:54:09.674Z,75.60
2024-02-28T17:56:41.679Z,39.70
2024-02-28T17:59:13.552Z,33.50
2024-02-28T18:01:45.576Z,53.40
2024-02-28T18:04:17.531Z,37.20
2024-02-28T18:06:49.430Z,42.60
2024-02-28T18:09:22.270Z,39.20
2024-02-28T18:11:54.221Z,37.30
2024-02-28T18:14:26.080Z,39.70
2024-02-28T18:16:58.022Z,37.70
2024-02-28T18:19:30.021Z,36.80
2024-02-28T18:22:02.932Z,36.10
2024-02-28T18:24:34.917Z,35.00
2024-02-28T18:27:10.342Z,41.50
2024-02-28T18:29:42.746Z,40.50
2024-02-28T18:32:14.821Z,29.00
2024-02-28T18:34:51.400Z,33.40
2024-02-28T18:37:25.667Z,29.30
2024-02-28T18:39:57.721Z,30.20
2024-02-28T18:42:29.693Z,25.20
2024-02-28T18:45:01.647Z,24.80
2024-02-28T18:47:33.535Z,27.70
2024-02-28T18:50:06.758Z,24.00
2024-02-28T18:52:38.533Z,24.20
2024-02-28T18:55:11.618Z,24.70
2024-02-28T18:57:43.649Z,25.30
2024-02-28T19:00:17.768Z,23.80
2024-02-28T19:02:50.390Z,22.10
2024-02-28T19:05:22.308Z,25.20
2024-02-28T19:07:54.155Z,23.80
2024-02-28T19:10:26.141Z,27.80
2024-02-28T19:12:58.059Z,27.20
2024-02-28T19:15:29.942Z,25.80
2024-02-28T19:18:01.939Z,29.30
2024-02-28T19:20:35.000Z,26.00
2024-02-28T19:23:07.112Z,27.20
2024-02-28T19:25:39.006Z,25.80
2024-02-28T19:28:11.190Z,26.50
2024-02-28T19:30:44.505Z,26.20
2024-02-28T19:33:16.675Z,26.50
2024-02-28T19:35:48.617Z,28.00
2024-02-28T19:38:20.920Z,29.10
2024-02-28T19:40:53.066Z,33.60
2024-02-28T19:43:24.870Z,28.00
2024-02-28T19:45:56.985Z,156.60
2024-02-28T19:48:30.355Z,420.20
2024-02-28T19:51:02.576Z,75.10
2024-02-28T19:53:34.413Z,118.80
2024-02-28T19:56:06.605Z,44.70
2024-02-28T19:58:38.763Z,35.20
2024-02-28T20:01:11.730Z,386.60
2024-02-28T20:03:43.738Z,50.80
2024-02-28T20:06:15.894Z,36.20
2024-02-28T20:08:49.640Z,49.60
2024-02-28T20:11:22.273Z,32.90
2024-02-28T20:13:54.117Z,27.60
2024-02-28T20:16:25.937Z,26.40
2024-02-28T20:18:57.893Z,33.50
2024-02-28T20:21:31.404Z,62.50
2024-02-28T20:24:03.456Z,37.50
2024-02-28T20:26:35.393Z,35.10
2024-02-28T20:29:08.896Z,34.60
2024-02-28T20:31:40.830Z,33.40
2024-02-28T20:34:12.743Z,184.30
2024-02-28T20:36:47.930Z,31.60
2024-02-28T20:39:19.998Z,29.00
2024-02-28T20:41:51.887Z,50.20
2024-02-28T20:44:25.155Z,24.10
2024-02-28T20:46:58.033Z,23.30
2024-02-28T20:49:29.921Z,19.20
2024-02-28T20:52:02.462Z,25.00
2024-02-28T20:54:34.697Z,135.00
2024-02-28T20:57:12.717Z,32.10
2024-02-28T20:59:48.859Z,59.30
2024-02-28T21:02:20.999Z,29.10
2024-02-28T21:04:53.307Z,147.60
2024-02-28T21:07:36.911Z,22.70
2024-02-28T21:10:17.362Z,19.80
2024-02-28T21:12:49.385Z,21.50
2024-02-28T21:15:21.560Z,19.70
2024-02-28T21:17:53.549Z,18.20
2024-02-28T21:20:26.106Z,16.80
2024-02-28T21:22:58.089Z,18.10
2024-02-28T21:25:30.026Z,16.10
2024-02-28T21:28:02.105Z,14.90
2024-02-28T21:30:34.278Z,19.10
2024-02-28T21:33:06.855Z,42.40
2024-02-28T21:35:43.635Z,35.00
2024-02-28T21:38:15.801Z,25.60
2024-02-28T21:40:47.768Z,18.80
2024-02-28T21:43:19.823Z,20.90
2024-02-28T21:45:51.922Z,26.10
2024-02-28T21:48:23.886Z,41.50
2024-02-28T21:50:55.773Z,42.30
2024-02-28T21:53:27.658Z,55.40
2024-02-28T21:55:59.434Z,103.60
2024-02-28T21:58:31.439Z,110.40
2024-02-28T22:01:03.683Z,34.30
2024-02-28T22:03:35.851Z,25.40
2024-02-28T22:06:10.865Z,18.00
2024-02-28T22:08:43.025Z,19.80
2024-02-28T22:11:15.121Z,20.40
2024-02-28T22:13:47.124Z,22.20
2024-02-28T22:16:18.946Z,33.80
2024-02-28T22:18:51.807Z,23.70
2024-02-28T22:21:23.833Z,20.10
2024-02-28T22:23:55.721Z,21.20
2024-02-28T22:26:27.750Z,32.30
2024-02-28T22:28:59.747Z,23.30
2024-02-28T22:31:31.780Z,23.30
2024-02-28T22:34:03.851Z,23.60
2024-02-28T22:36:35.624Z,36.90
2024-02-28T22:39:10.361Z,50.90
2024-02-28T22:41:42.213Z,35.00
2024-02-28T22:44:14.244Z,23.50
2024-02-28T22:46:46.777Z,63.20
2024-02-28T22:49:18.801Z,24.50
2024-02-28T22:51:50.876Z,23.40
2024-02-28T22:54:24.293Z,22.10
2024-02-28T22:56:56.388Z,22.00
2024-02-28T22:59:28.414Z,23.20
2024-02-28T23:02:00.371Z,21.00
2024-02-28T23:04:32.393Z,23.70
2024-02-28T23:07:04.266Z,25.80
2024-02-28T23:09:36.610Z,26.00
2024-02-28T23:12:09.183Z,25.30
2024-02-28T23:14:41.194Z,28.50
2024-02-28T23:17:13.049Z,29.00
2024-02-28T23:19:47.462Z,30.80
2024-02-28T23:22:20.554Z,25.40
2024-02-28T23:24:52.840Z,27.20
2024-02-28T23:27:26.436Z,27.30
2024-02-28T23:29:58.333Z,26.30
2024-02-28T23:32:30.303Z,25.20
2024-02-28T23:35:02.159Z,22.80
2024-02-28T23:37:34.095Z,21.40
2024-02-28T23:40:07.841Z,23.70
2024-02-28T23:42:40.218Z,24.60
2024-02-28T23:45:13.794Z,31.40
2024-02-28T23:47:46.037Z,27.20
2024-02-28T23:50:18.158Z,26.90
2024-02-28T23:52:50.102Z,24.80
2024-02-28T23:55:22.381Z,26.10
2024-02-28T23:57:54.286Z,26.00
